Terminal Aerodrome Forecast
Issued by NWS Albany, NY

Home | Current Version | Previous Version | Text Only | Print | Product List | Glossary On
Versions: 1 2 3 4 5 6 7 8 9 10 11 12 13 14 15 16 17 18 19
000
FTUS41 KALY 290500
TAFGFL
TAF
KGFL 290525Z 2906/3006 VRB03KT P6SM FEW250
     FM292100 VRB03KT P6SM BKN100
     FM300000 19004KT P6SM OVC070
     FM300300 19004KT 3SM -SN BKN020 OVC030=

USA.gov is the U.S. government's official web portal to all federal, state and local government web resources and services.